sensor_id;sensor_type;location;lat;lon;timestamp;P1;durP1;ratioP1;P2;durP2;ratioP2
2313;SDS011;42279;51.388;7.000;2023-08-06T00:00:47;5.00;;;4.47;;
2313;SDS011;42279;51.388;7.000;2023-08-06T00:03:13;4.17;;;4.07;;
2313;SDS011;42279;51.388;7.000;2023-08-06T00:05:42;3.83;;;3.73;;
2313;SDS011;42279;51.388;7.000;2023-08-06T00:08:08;4.43;;;4.03;;
2313;SDS011;42279;51.388;7.000;2023-08-06T00:10:34;3.43;;;3.43;;
2313;SDS011;42279;51.388;7.000;2023-08-06T00:13:03;3.00;;;2.93;;
2313;SDS011;42279;51.388;7.000;2023-08-06T00:15:32;3.37;;;3.27;;
2313;SDS011;42279;51.388;7.000;2023-08-06T00:17:58;4.37;;;4.27;;
2313;SDS011;42279;51.388;7.000;2023-08-06T00:20:24;3.93;;;3.83;;
2313;SDS011;42279;51.388;7.000;2023-08-06T00:22:50;4.20;;;4.00;;
2313;SDS011;42279;51.388;7.000;2023-08-06T00:25:16;4.30;;;4.00;;
2313;SDS011;42279;51.388;7.000;2023-08-06T00:27:42;3.63;;;3.57;;
2313;SDS011;42279;51.388;7.000;2023-08-06T00:30:08;3.83;;;3.63;;
2313;SDS011;42279;51.388;7.000;2023-08-06T00:32:34;4.50;;;4.20;;
2313;SDS011;42279;51.388;7.000;2023-08-06T00:35:00;3.60;;;3.50;;
2313;SDS011;42279;51.388;7.000;2023-08-06T00:37:26;3.70;;;3.60;;
2313;SDS011;42279;51.388;7.000;2023-08-06T00:39:52;4.50;;;4.10;;
2313;SDS011;42279;51.388;7.000;2023-08-06T00:42:18;4.20;;;3.90;;
2313;SDS011;42279;51.388;7.000;2023-08-06T00:44:45;4.50;;;4.30;;
2313;SDS011;42279;51.388;7.000;2023-08-06T00:47:11;4.10;;;3.63;;
2313;SDS011;42279;51.388;7.000;2023-08-06T00:49:37;4.00;;;3.77;;
2313;SDS011;42279;51.388;7.000;2023-08-06T00:52:04;4.00;;;3.80;;
2313;SDS011;42279;51.388;7.000;2023-08-06T00:54:31;3.90;;;3.70;;
2313;SDS011;42279;51.388;7.000;2023-08-06T01:02:51;4.57;;;4.20;;
2313;SDS011;42279;51.388;7.000;2023-08-06T01:05:17;4.50;;;4.10;;
2313;SDS011;42279;51.388;7.000;2023-08-06T01:13:59;5.17;;;4.57;;
2313;SDS011;42279;51.388;7.000;2023-08-06T01:16:26;4.97;;;4.77;;
2313;SDS011;42279;51.388;7.000;2023-08-06T01:18:52;5.00;;;4.60;;
2313;SDS011;42279;51.388;7.000;2023-08-06T01:21:18;5.07;;;4.97;;
2313;SDS011;42279;51.388;7.000;2023-08-06T01:23:45;5.00;;;4.90;;
2313;SDS011;42279;51.388;7.000;2023-08-06T01:26:15;5.50;;;4.97;;
2313;SDS011;42279;51.388;7.000;2023-08-06T01:31:24;5.17;;;4.87;;
2313;SDS011;42279;51.388;7.000;2023-08-06T01:33:52;4.93;;;4.83;;
2313;SDS011;42279;51.388;7.000;2023-08-06T01:36:19;5.77;;;4.30;;
2313;SDS011;42279;51.388;7.000;2023-08-06T01:38:46;4.40;;;4.40;;
2313;SDS011;42279;51.388;7.000;2023-08-06T01:41:12;4.13;;;3.93;;
2313;SDS011;42279;51.388;7.000;2023-08-06T01:43:38;3.53;;;3.40;;
2313;SDS011;42279;51.388;7.000;2023-08-06T01:46:04;4.20;;;4.10;;
2313;SDS011;42279;51.388;7.000;2023-08-06T01:48:33;4.00;;;3.80;;
2313;SDS011;42279;51.388;7.000;2023-08-06T01:50:59;3.93;;;3.87;;
2313;SDS011;42279;51.388;7.000;2023-08-06T01:53:25;3.67;;;3.57;;
2313;SDS011;42279;51.388;7.000;2023-08-06T01:55:51;4.63;;;4.33;;
2313;SDS011;42279;51.388;7.000;2023-08-06T01:58:17;3.30;;;3.10;;
2313;SDS011;42279;51.388;7.000;2023-08-06T02:00:43;3.50;;;3.40;;
2313;SDS011;42279;51.388;7.000;2023-08-06T02:03:09;3.73;;;3.60;;
2313;SDS011;42279;51.388;7.000;2023-08-06T02:05:35;3.97;;;3.27;;
2313;SDS011;42279;51.388;7.000;2023-08-06T02:08:01;3.43;;;3.23;;
2313;SDS011;42279;51.388;7.000;2023-08-06T02:10:27;6.20;;;3.90;;
2313;SDS011;42279;51.388;7.000;2023-08-06T02:12:53;3.40;;;3.37;;
2313;SDS011;42279;51.388;7.000;2023-08-06T02:15:19;4.00;;;3.80;;
2313;SDS011;42279;51.388;7.000;2023-08-06T02:20:55;3.67;;;3.57;;
2313;SDS011;42279;51.388;7.000;2023-08-06T02:23:25;3.37;;;3.30;;
2313;SDS011;42279;51.388;7.000;2023-08-06T02:26:00;3.90;;;3.70;;
2313;SDS011;42279;51.388;7.000;2023-08-06T02:28:30;3.93;;;3.77;;
2313;SDS011;42279;51.388;7.000;2023-08-06T02:30:56;3.77;;;3.67;;
2313;SDS011;42279;51.388;7.000;2023-08-06T02:33:22;3.63;;;3.53;;
2313;SDS011;42279;51.388;7.000;2023-08-06T02:35:48;3.50;;;3.50;;
2313;SDS011;42279;51.388;7.000;2023-08-06T02:38:14;3.40;;;3.30;;
2313;SDS011;42279;51.388;7.000;2023-08-06T02:40:46;3.60;;;3.50;;
2313;SDS011;42279;51.388;7.000;2023-08-06T02:43:15;3.50;;;3.50;;
2313;SDS011;42279;51.388;7.000;2023-08-06T02:45:44;5.33;;;3.93;;
2313;SDS011;42279;51.388;7.000;2023-08-06T02:48:09;3.87;;;3.67;;
2313;SDS011;42279;51.388;7.000;2023-08-06T02:50:48;4.47;;;4.27;;
2313;SDS011;42279;51.388;7.000;2023-08-06T02:53:14;3.90;;;3.80;;
2313;SDS011;42279;51.388;7.000;2023-08-06T02:55:44;4.13;;;3.83;;
2313;SDS011;42279;51.388;7.000;2023-08-06T02:58:11;4.27;;;4.07;;
2313;SDS011;42279;51.388;7.000;2023-08-06T03:00:37;3.87;;;3.77;;
2313;SDS011;42279;51.388;7.000;2023-08-06T03:03:03;3.80;;;3.60;;
2313;SDS011;42279;51.388;7.000;2023-08-06T03:05:29;4.07;;;3.97;;
2313;SDS011;42279;51.388;7.000;2023-08-06T03:07:55;4.50;;;4.20;;
2313;SDS011;42279;51.388;7.000;2023-08-06T03:10:21;3.97;;;3.80;;
2313;SDS011;42279;51.388;7.000;2023-08-06T03:19:20;3.97;;;3.77;;
2313;SDS011;42279;51.388;7.000;2023-08-06T03:24:50;3.60;;;3.30;;
2313;SDS011;42279;51.388;7.000;2023-08-06T03:30:23;3.43;;;3.43;;
2313;SDS011;42279;51.388;7.000;2023-08-06T03:32:49;3.60;;;3.50;;
2313;SDS011;42279;51.388;7.000;2023-08-06T03:35:18;4.87;;;3.57;;
2313;SDS011;42279;51.388;7.000;2023-08-06T03:37:44;3.63;;;3.43;;
2313;SDS011;42279;51.388;7.000;2023-08-06T03:40:10;3.57;;;3.37;;
2313;SDS011;42279;51.388;7.000;2023-08-06T03:42:36;3.50;;;3.33;;
2313;SDS011;42279;51.388;7.000;2023-08-06T03:45:05;3.77;;;3.67;;
2313;SDS011;42279;51.388;7.000;2023-08-06T03:47:32;3.67;;;3.47;;
2313;SDS011;42279;51.388;7.000;2023-08-06T03:49:58;3.80;;;3.70;;
2313;SDS011;42279;51.388;7.000;2023-08-06T03:52:24;3.67;;;3.50;;
2313;SDS011;42279;51.388;7.000;2023-08-06T03:54:56;2.90;;;2.90;;
2313;SDS011;42279;51.388;7.000;2023-08-06T03:57:22;2.70;;;2.60;;
2313;SDS011;42279;51.388;7.000;2023-08-06T03:59:48;3.30;;;3.13;;
2313;SDS011;42279;51.388;7.000;2023-08-06T04:02:13;3.97;;;3.87;;
2313;SDS011;42279;51.388;7.000;2023-08-06T04:04:39;3.03;;;2.93;;
2313;SDS011;42279;51.388;7.000;2023-08-06T04:07:05;3.30;;;3.20;;
2313;SDS011;42279;51.388;7.000;2023-08-06T04:09:31;3.50;;;3.40;;
2313;SDS011;42279;51.388;7.000;2023-08-06T04:11:57;2.90;;;2.90;;
2313;SDS011;42279;51.388;7.000;2023-08-06T04:14:28;3.73;;;3.63;;
2313;SDS011;42279;51.388;7.000;2023-08-06T04:16:54;3.50;;;3.40;;
2313;SDS011;42279;51.388;7.000;2023-08-06T04:19:20;3.20;;;3.20;;
2313;SDS011;42279;51.388;7.000;2023-08-06T04:21:46;2.50;;;2.40;;
2313;SDS011;42279;51.388;7.000;2023-08-06T04:24:12;3.10;;;2.50;;
2313;SDS011;42279;51.388;7.000;2023-08-06T04:26:38;3.03;;;2.93;;
2313;SDS011;42279;51.388;7.000;2023-08-06T04:29:04;3.20;;;3.00;;
2313;SDS011;42279;51.388;7.000;2023-08-06T04:31:30;3.57;;;3.47;;
2313;SDS011;42279;51.388;7.000;2023-08-06T04:33:56;2.83;;;2.83;;
2313;SDS011;42279;51.388;7.000;2023-08-06T04:36:22;2.87;;;2.70;;
2313;SDS011;42279;51.388;7.000;2023-08-06T04:38:48;3.37;;;3.27;;
2313;SDS011;42279;51.388;7.000;2023-08-06T04:41:13;2.70;;;2.60;;
2313;SDS011;42279;51.388;7.000;2023-08-06T04:43:39;3.77;;;3.50;;
2313;SDS011;42279;51.388;7.000;2023-08-06T04:46:05;3.07;;;2.90;;
2313;SDS011;42279;51.388;7.000;2023-08-06T04:48:31;3.03;;;2.93;;
2313;SDS011;42279;51.388;7.000;2023-08-06T04:50:57;3.23;;;3.03;;
2313;SDS011;42279;51.388;7.000;2023-08-06T04:53:23;3.00;;;2.90;;
2313;SDS011;42279;51.388;7.000;2023-08-06T04:55:49;2.67;;;2.47;;
2313;SDS011;42279;51.388;7.000;2023-08-06T04:58:15;3.13;;;2.63;;
2313;SDS011;42279;51.388;7.000;2023-08-06T05:00:41;2.90;;;2.80;;
2313;SDS011;42279;51.388;7.000;2023-08-06T05:03:07;3.67;;;3.43;;
2313;SDS011;42279;51.388;7.000;2023-08-06T05:05:33;4.57;;;4.37;;
2313;SDS011;42279;51.388;7.000;2023-08-06T05:07:59;3.33;;;3.13;;
2313;SDS011;42279;51.388;7.000;2023-08-06T05:10:25;3.50;;;3.40;;
2313;SDS011;42279;51.388;7.000;2023-08-06T05:12:51;3.13;;;3.00;;
2313;SDS011;42279;51.388;7.000;2023-08-06T05:15:17;3.20;;;3.10;;
2313;SDS011;42279;51.388;7.000;2023-08-06T05:17:43;2.83;;;2.57;;
2313;SDS011;42279;51.388;7.000;2023-08-06T05:20:10;2.33;;;2.33;;
2313;SDS011;42279;51.388;7.000;2023-08-06T05:22:36;3.00;;;2.90;;
2313;SDS011;42279;51.388;7.000;2023-08-06T05:25:02;3.03;;;2.93;;
2313;SDS011;42279;51.388;7.000;2023-08-06T05:27:28;2.57;;;2.47;;
2313;SDS011;42279;51.388;7.000;2023-08-06T05:29:55;2.83;;;2.83;;
2313;SDS011;42279;51.388;7.000;2023-08-06T05:32:21;2.73;;;2.63;;
2313;SDS011;42279;51.388;7.000;2023-08-06T05:34:47;2.83;;;2.63;;
2313;SDS011;42279;51.388;7.000;2023-08-06T05:37:13;2.30;;;2.30;;
2313;SDS011;42279;51.388;7.000;2023-08-06T05:39:39;3.13;;;2.93;;
2313;SDS011;42279;51.388;7.000;2023-08-06T05:42:06;3.37;;;3.37;;
2313;SDS011;42279;51.388;7.000;2023-08-06T05:44:33;2.70;;;2.60;;
2313;SDS011;42279;51.388;7.000;2023-08-06T05:46:59;2.90;;;2.80;;
2313;SDS011;42279;51.388;7.000;2023-08-06T05:49:24;2.87;;;2.70;;
2313;SDS011;42279;51.388;7.000;2023-08-06T05:51:50;2.73;;;2.63;;
2313;SDS011;42279;51.388;7.000;2023-08-06T05:54:18;3.27;;;2.97;;
2313;SDS011;42279;51.388;7.000;2023-08-06T05:56:44;2.87;;;2.70;;
2313;SDS011;42279;51.388;7.000;2023-08-06T05:59:10;2.60;;;2.60;;
2313;SDS011;42279;51.388;7.000;2023-08-06T06:01:36;3.10;;;3.00;;
2313;SDS011;42279;51.388;7.000;2023-08-06T06:04:02;2.10;;;2.10;;
2313;SDS011;42279;51.388;7.000;2023-08-06T06:06:28;3.10;;;2.90;;
2313;SDS011;42279;51.388;7.000;2023-08-06T06:08:54;2.60;;;2.60;;
2313;SDS011;42279;51.388;7.000;2023-08-06T06:11:20;2.50;;;2.50;;
2313;SDS011;42279;51.388;7.000;2023-08-06T06:13:48;2.83;;;2.73;;
2313;SDS011;42279;51.388;7.000;2023-08-06T06:16:14;2.70;;;2.60;;
2313;SDS011;42279;51.388;7.000;2023-08-06T06:18:40;3.47;;;3.03;;
2313;SDS011;42279;51.388;7.000;2023-08-06T06:21:06;6.20;;;2.80;;
2313;SDS011;42279;51.388;7.000;2023-08-06T06:23:32;2.70;;;2.60;;
2313;SDS011;42279;51.388;7.000;2023-08-06T06:25:59;2.87;;;2.67;;
2313;SDS011;42279;51.388;7.000;2023-08-06T06:28:25;2.43;;;2.33;;
2313;SDS011;42279;51.388;7.000;2023-08-06T06:30:51;3.63;;;2.40;;
2313;SDS011;42279;51.388;7.000;2023-08-06T06:33:17;2.37;;;2.37;;
2313;SDS011;42279;51.388;7.000;2023-08-06T06:35:43;4.63;;;2.33;;
2313;SDS011;42279;51.388;7.000;2023-08-06T06:38:09;2.50;;;2.37;;
2313;SDS011;42279;51.388;7.000;2023-08-06T06:40:35;3.13;;;1.93;;
2313;SDS011;42279;51.388;7.000;2023-08-06T06:43:01;2.37;;;2.27;;
2313;SDS011;42279;51.388;7.000;2023-08-06T06:45:27;2.30;;;2.30;;
2313;SDS011;42279;51.388;7.000;2023-08-06T06:47:53;3.63;;;3.20;;
2313;SDS011;42279;51.388;7.000;2023-08-06T06:50:19;2.50;;;2.40;;
2313;SDS011;42279;51.388;7.000;2023-08-06T06:52:45;2.07;;;2.07;;
2313;SDS011;42279;51.388;7.000;2023-08-06T06:55:11;4.33;;;2.60;;
2313;SDS011;42279;51.388;7.000;2023-08-06T06:57:37;3.23;;;3.13;;
2313;SDS011;42279;51.388;7.000;2023-08-06T07:00:03;2.57;;;2.43;;
2313;SDS011;42279;51.388;7.000;2023-08-06T07:08:36;2.93;;;2.73;;
2313;SDS011;42279;51.388;7.000;2023-08-06T07:11:03;2.70;;;2.60;;
2313;SDS011;42279;51.388;7.000;2023-08-06T07:13:29;2.93;;;2.73;;
2313;SDS011;42279;51.388;7.000;2023-08-06T07:15:55;2.50;;;2.50;;
2313;SDS011;42279;51.388;7.000;2023-08-06T07:18:21;2.00;;;1.90;;
2313;SDS011;42279;51.388;7.000;2023-08-06T07:20:51;2.33;;;2.33;;
2313;SDS011;42279;51.388;7.000;2023-08-06T07:23:18;3.07;;;2.33;;
2313;SDS011;42279;51.388;7.000;2023-08-06T07:29:05;1.70;;;1.60;;
2313;SDS011;42279;51.388;7.000;2023-08-06T07:31:31;2.20;;;2.20;;
2313;SDS011;42279;51.388;7.000;2023-08-06T07:33:57;2.50;;;2.50;;
2313;SDS011;42279;51.388;7.000;2023-08-06T07:36:23;2.23;;;2.23;;
2313;SDS011;42279;51.388;7.000;2023-08-06T07:38:49;2.20;;;1.70;;
2313;SDS011;42279;51.388;7.000;2023-08-06T07:41:20;1.70;;;1.60;;
2313;SDS011;42279;51.388;7.000;2023-08-06T07:43:46;2.30;;;2.20;;
2313;SDS011;42279;51.388;7.000;2023-08-06T07:46:12;2.33;;;2.17;;
2313;SDS011;42279;51.388;7.000;2023-08-06T07:48:38;1.47;;;1.47;;
2313;SDS011;42279;51.388;7.000;2023-08-06T07:51:05;2.50;;;2.40;;
2313;SDS011;42279;51.388;7.000;2023-08-06T07:53:31;2.07;;;2.03;;
2313;SDS011;42279;51.388;7.000;2023-08-06T07:56:00;1.87;;;1.87;;
2313;SDS011;42279;51.388;7.000;2023-08-06T08:07:28;1.63;;;1.63;;
2313;SDS011;42279;51.388;7.000;2023-08-06T08:09:57;2.30;;;2.10;;
2313;SDS011;42279;51.388;7.000;2023-08-06T08:12:23;2.10;;;2.00;;
2313;SDS011;42279;51.388;7.000;2023-08-06T08:14:49;2.03;;;1.93;;
2313;SDS011;42279;51.388;7.000;2023-08-06T08:17:15;1.73;;;1.60;;
2313;SDS011;42279;51.388;7.000;2023-08-06T08:19:41;2.70;;;2.60;;
2313;SDS011;42279;51.388;7.000;2023-08-06T08:22:07;1.77;;;1.67;;
2313;SDS011;42279;51.388;7.000;2023-08-06T08:24:33;1.83;;;1.77;;
2313;SDS011;42279;51.388;7.000;2023-08-06T08:26:59;2.03;;;1.93;;
2313;SDS011;42279;51.388;7.000;2023-08-06T08:29:25;1.97;;;1.80;;
2313;SDS011;42279;51.388;7.000;2023-08-06T08:31:51;2.20;;;1.97;;
2313;SDS011;42279;51.388;7.000;2023-08-06T08:34:17;2.20;;;2.10;;
2313;SDS011;42279;51.388;7.000;2023-08-06T08:36:43;2.30;;;2.20;;
2313;SDS011;42279;51.388;7.000;2023-08-06T08:39:12;1.73;;;1.70;;
2313;SDS011;42279;51.388;7.000;2023-08-06T08:41:38;2.23;;;2.00;;
2313;SDS011;42279;51.388;7.000;2023-08-06T08:44:08;1.87;;;1.87;;
2313;SDS011;42279;51.388;7.000;2023-08-06T08:46:36;2.20;;;2.10;;
2313;SDS011;42279;51.388;7.000;2023-08-06T08:49:05;2.00;;;1.90;;
2313;SDS011;42279;51.388;7.000;2023-08-06T08:51:32;1.73;;;1.63;;
2313;SDS011;42279;51.388;7.000;2023-08-06T08:53:59;2.20;;;2.20;;
2313;SDS011;42279;51.388;7.000;2023-08-06T08:56:25;2.90;;;2.60;;
2313;SDS011;42279;51.388;7.000;2023-08-06T08:58:51;1.40;;;1.40;;
2313;SDS011;42279;51.388;7.000;2023-08-06T09:01:21;1.50;;;1.50;;
2313;SDS011;42279;51.388;7.000;2023-08-06T09:03:47;1.83;;;1.83;;
2313;SDS011;42279;51.388;7.000;2023-08-06T09:06:13;1.63;;;1.53;;
2313;SDS011;42279;51.388;7.000;2023-08-06T09:08:48;1.63;;;1.63;;
2313;SDS011;42279;51.388;7.000;2023-08-06T09:11:17;2.27;;;2.27;;
2313;SDS011;42279;51.388;7.000;2023-08-06T09:13:45;1.70;;;1.70;;
2313;SDS011;42279;51.388;7.000;2023-08-06T09:16:11;1.80;;;1.80;;
2313;SDS011;42279;51.388;7.000;2023-08-06T09:18:38;2.17;;;2.17;;
2313;SDS011;42279;51.388;7.000;2023-08-06T09:21:05;1.90;;;1.90;;
2313;SDS011;42279;51.388;7.000;2023-08-06T09:23:31;1.23;;;1.23;;
2313;SDS011;42279;51.388;7.000;2023-08-06T09:25:58;1.80;;;1.80;;
2313;SDS011;42279;51.388;7.000;2023-08-06T09:28:25;1.60;;;1.60;;
2313;SDS011;42279;51.388;7.000;2023-08-06T09:31:02;1.93;;;1.93;;
2313;SDS011;42279;51.388;7.000;2023-08-06T09:33:29;3.30;;;3.20;;
2313;SDS011;42279;51.388;7.000;2023-08-06T09:35:55;2.63;;;2.53;;
2313;SDS011;42279;51.388;7.000;2023-08-06T09:38:21;3.50;;;3.50;;
2313;SDS011;42279;51.388;7.000;2023-08-06T09:40:47;5.57;;;5.37;;
2313;SDS011;42279;51.388;7.000;2023-08-06T09:43:13;7.00;;;6.53;;
2313;SDS011;42279;51.388;7.000;2023-08-06T09:45:39;6.90;;;6.40;;
2313;SDS011;42279;51.388;7.000;2023-08-06T09:48:05;7.03;;;6.63;;
2313;SDS011;42279;51.388;7.000;2023-08-06T09:50:32;7.90;;;7.40;;
2313;SDS011;42279;51.388;7.000;2023-08-06T09:53:01;8.37;;;7.77;;
2313;SDS011;42279;51.388;7.000;2023-08-06T09:55:27;7.33;;;7.03;;
2313;SDS011;42279;51.388;7.000;2023-08-06T09:57:53;8.70;;;8.00;;
2313;SDS011;42279;51.388;7.000;2023-08-06T10:00:19;8.83;;;8.30;;
2313;SDS011;42279;51.388;7.000;2023-08-06T10:02:46;9.40;;;8.80;;
2313;SDS011;42279;51.388;7.000;2023-08-06T10:05:13;8.40;;;8.00;;
2313;SDS011;42279;51.388;7.000;2023-08-06T10:07:40;8.37;;;7.87;;
2313;SDS011;42279;51.388;7.000;2023-08-06T10:10:08;9.50;;;8.70;;
2313;SDS011;42279;51.388;7.000;2023-08-06T10:12:35;8.77;;;8.17;;
2313;SDS011;42279;51.388;7.000;2023-08-06T10:15:03;9.53;;;8.93;;
2313;SDS011;42279;51.388;7.000;2023-08-06T10:17:30;9.10;;;8.60;;
2313;SDS011;42279;51.388;7.000;2023-08-06T10:19:58;9.43;;;8.80;;
2313;SDS011;42279;51.388;7.000;2023-08-06T10:22:24;9.63;;;8.90;;
2313;SDS011;42279;51.388;7.000;2023-08-06T10:24:56;8.57;;;7.93;;
2313;SDS011;42279;51.388;7.000;2023-08-06T10:29:48;10.23;;;9.30;;
2313;SDS011;42279;51.388;7.000;2023-08-06T10:32:15;8.00;;;7.67;;
2313;SDS011;42279;51.388;7.000;2023-08-06T10:35:01;9.07;;;8.57;;
2313;SDS011;42279;51.388;7.000;2023-08-06T10:37:34;10.10;;;9.03;;
2313;SDS011;42279;51.388;7.000;2023-08-06T10:40:00;8.83;;;8.20;;
2313;SDS011;42279;51.388;7.000;2023-08-06T10:42:27;8.63;;;8.07;;
2313;SDS011;42279;51.388;7.000;2023-08-06T10:47:39;7.77;;;7.47;;
2313;SDS011;42279;51.388;7.000;2023-08-06T10:50:07;9.00;;;7.90;;
2313;SDS011;42279;51.388;7.000;2023-08-06T10:52:33;11.20;;;10.23;;
2313;SDS011;42279;51.388;7.000;2023-08-06T10:55:00;11.63;;;10.93;;
2313;SDS011;42279;51.388;7.000;2023-08-06T10:57:26;13.20;;;12.30;;
2313;SDS011;42279;51.388;7.000;2023-08-06T10:59:53;11.20;;;10.30;;
2313;SDS011;42279;51.388;7.000;2023-08-06T11:02:19;11.60;;;10.80;;
2313;SDS011;42279;51.388;7.000;2023-08-06T11:04:45;12.83;;;11.77;;
2313;SDS011;42279;51.388;7.000;2023-08-06T11:07:13;10.60;;;9.90;;
2313;SDS011;42279;51.388;7.000;2023-08-06T11:09:39;11.30;;;10.30;;
2313;SDS011;42279;51.388;7.000;2023-08-06T11:12:11;10.43;;;9.80;;
2313;SDS011;42279;51.388;7.000;2023-08-06T11:14:37;10.70;;;10.20;;
2313;SDS011;42279;51.388;7.000;2023-08-06T11:17:04;4.67;;;4.47;;
2313;SDS011;42279;51.388;7.000;2023-08-06T11:19:31;6.13;;;4.70;;
2313;SDS011;42279;51.388;7.000;2023-08-06T11:21:57;2.73;;;2.63;;
2313;SDS011;42279;51.388;7.000;2023-08-06T11:24:24;2.40;;;2.40;;
2313;SDS011;42279;51.388;7.000;2023-08-06T11:26:50;2.57;;;2.47;;
2313;SDS011;42279;51.388;7.000;2023-08-06T11:29:16;2.33;;;2.33;;
2313;SDS011;42279;51.388;7.000;2023-08-06T11:31:45;2.50;;;2.50;;
2313;SDS011;42279;51.388;7.000;2023-08-06T11:34:14;2.10;;;2.10;;
2313;SDS011;42279;51.388;7.000;2023-08-06T11:36:49;2.10;;;2.00;;
2313;SDS011;42279;51.388;7.000;2023-08-06T11:39:15;1.43;;;1.43;;
2313;SDS011;42279;51.388;7.000;2023-08-06T11:41:41;1.87;;;1.67;;
2313;SDS011;42279;51.388;7.000;2023-08-06T11:44:13;1.97;;;1.97;;
2313;SDS011;42279;51.388;7.000;2023-08-06T11:49:34;2.13;;;2.03;;
2313;SDS011;42279;51.388;7.000;2023-08-06T11:52:21;1.77;;;1.77;;
2313;SDS011;42279;51.388;7.000;2023-08-06T11:55:04;1.33;;;1.33;;
2313;SDS011;42279;51.388;7.000;2023-08-06T11:57:39;1.60;;;1.60;;
2313;SDS011;42279;51.388;7.000;2023-08-06T12:00:06;2.13;;;2.03;;
2313;SDS011;42279;51.388;7.000;2023-08-06T12:02:33;2.23;;;2.23;;
2313;SDS011;42279;51.388;7.000;2023-08-06T12:05:01;2.80;;;2.80;;
2313;SDS011;42279;51.388;7.000;2023-08-06T12:07:31;2.50;;;2.50;;
2313;SDS011;42279;51.388;7.000;2023-08-06T12:09:57;2.17;;;2.17;;
2313;SDS011;42279;51.388;7.000;2023-08-06T12:12:23;3.27;;;2.40;;
2313;SDS011;42279;51.388;7.000;2023-08-06T12:14:49;2.10;;;2.10;;
2313;SDS011;42279;51.388;7.000;2023-08-06T12:17:16;1.43;;;1.43;;
2313;SDS011;42279;51.388;7.000;2023-08-06T12:19:44;1.70;;;1.70;;
2313;SDS011;42279;51.388;7.000;2023-08-06T12:22:10;1.50;;;1.50;;
2313;SDS011;42279;51.388;7.000;2023-08-06T12:24:38;1.17;;;1.17;;
2313;SDS011;42279;51.388;7.000;2023-08-06T12:27:04;1.30;;;1.30;;
2313;SDS011;42279;51.388;7.000;2023-08-06T12:29:30;1.87;;;1.87;;
2313;SDS011;42279;51.388;7.000;2023-08-06T12:31:56;1.70;;;1.60;;
2313;SDS011;42279;51.388;7.000;2023-08-06T12:34:22;1.40;;;1.40;;
2313;SDS011;42279;51.388;7.000;2023-08-06T12:36:48;2.00;;;2.00;;
2313;SDS011;42279;51.388;7.000;2023-08-06T12:39:14;1.40;;;1.30;;
2313;SDS011;42279;51.388;7.000;2023-08-06T12:41:40;1.90;;;1.80;;
2313;SDS011;42279;51.388;7.000;2023-08-06T12:44:08;1.40;;;1.40;;
2313;SDS011;42279;51.388;7.000;2023-08-06T12:46:34;4.07;;;1.83;;
2313;SDS011;42279;51.388;7.000;2023-08-06T12:49:00;1.23;;;1.23;;
2313;SDS011;42279;51.388;7.000;2023-08-06T12:51:26;1.70;;;1.70;;
2313;SDS011;42279;51.388;7.000;2023-08-06T12:53:52;1.83;;;1.83;;
2313;SDS011;42279;51.388;7.000;2023-08-06T12:56:18;1.23;;;1.23;;
2313;SDS011;42279;51.388;7.000;2023-08-06T12:58:44;1.50;;;1.50;;
2313;SDS011;42279;51.388;7.000;2023-08-06T13:01:10;1.30;;;1.30;;
2313;SDS011;42279;51.388;7.000;2023-08-06T13:03:36;1.50;;;1.50;;
2313;SDS011;42279;51.388;7.000;2023-08-06T13:06:02;1.40;;;1.40;;
2313;SDS011;42279;51.388;7.000;2023-08-06T13:08:28;1.60;;;1.60;;
2313;SDS011;42279;51.388;7.000;2023-08-06T13:10:54;1.30;;;1.30;;
2313;SDS011;42279;51.388;7.000;2023-08-06T13:13:20;1.80;;;1.80;;
2313;SDS011;42279;51.388;7.000;2023-08-06T13:15:46;1.57;;;1.57;;
2313;SDS011;42279;51.388;7.000;2023-08-06T13:18:12;2.00;;;2.00;;
2313;SDS011;42279;51.388;7.000;2023-08-06T13:20:38;2.27;;;2.27;;
2313;SDS011;42279;51.388;7.000;2023-08-06T13:23:07;2.67;;;2.57;;
2313;SDS011;42279;51.388;7.000;2023-08-06T13:25:33;29.77;;;21.03;;
2313;SDS011;42279;51.388;7.000;2023-08-06T13:28:02;3.90;;;2.10;;
2313;SDS011;42279;51.388;7.000;2023-08-06T13:30:28;2.00;;;2.00;;
2313;SDS011;42279;51.388;7.000;2023-08-06T13:32:54;2.90;;;2.70;;
2313;SDS011;42279;51.388;7.000;2023-08-06T13:35:21;2.57;;;2.40;;
2313;SDS011;42279;51.388;7.000;2023-08-06T13:37:48;3.00;;;2.90;;
2313;SDS011;42279;51.388;7.000;2023-08-06T13:40:14;2.93;;;2.87;;
2313;SDS011;42279;51.388;7.000;2023-08-06T13:42:40;3.70;;;3.60;;
2313;SDS011;42279;51.388;7.000;2023-08-06T13:45:06;4.03;;;3.93;;
2313;SDS011;42279;51.388;7.000;2023-08-06T13:47:33;3.57;;;3.50;;
2313;SDS011;42279;51.388;7.000;2023-08-06T13:50:02;4.23;;;3.93;;
2313;SDS011;42279;51.388;7.000;2023-08-06T13:52:28;6.43;;;3.20;;
2313;SDS011;42279;51.388;7.000;2023-08-06T13:54:54;4.03;;;3.80;;
2313;SDS011;42279;51.388;7.000;2023-08-06T13:57:20;3.80;;;3.70;;
2313;SDS011;42279;51.388;7.000;2023-08-06T13:59:46;3.63;;;3.47;;
2313;SDS011;42279;51.388;7.000;2023-08-06T14:02:12;3.20;;;3.10;;
2313;SDS011;42279;51.388;7.000;2023-08-06T14:04:38;3.00;;;3.00;;
2313;SDS011;42279;51.388;7.000;2023-08-06T14:07:05;3.10;;;3.10;;
2313;SDS011;42279;51.388;7.000;2023-08-06T14:09:31;3.27;;;3.10;;
2313;SDS011;42279;51.388;7.000;2023-08-06T14:11:57;3.80;;;3.80;;
2313;SDS011;42279;51.388;7.000;2023-08-06T14:14:23;3.40;;;3.40;;
2313;SDS011;42279;51.388;7.000;2023-08-06T14:16:53;3.20;;;3.20;;
2313;SDS011;42279;51.388;7.000;2023-08-06T14:19:20;2.80;;;2.80;;
2313;SDS011;42279;51.388;7.000;2023-08-06T14:21:46;3.33;;;3.33;;
2313;SDS011;42279;51.388;7.000;2023-08-06T14:24:12;3.67;;;3.57;;
2313;SDS011;42279;51.388;7.000;2023-08-06T14:26:38;4.60;;;4.27;;
2313;SDS011;42279;51.388;7.000;2023-08-06T14:29:04;5.37;;;5.17;;
2313;SDS011;42279;51.388;7.000;2023-08-06T14:31:30;4.67;;;4.47;;
2313;SDS011;42279;51.388;7.000;2023-08-06T14:33:56;3.40;;;3.33;;
2313;SDS011;42279;51.388;7.000;2023-08-06T14:36:22;3.77;;;3.60;;
2313;SDS011;42279;51.388;7.000;2023-08-06T14:38:48;2.93;;;2.83;;
2313;SDS011;42279;51.388;7.000;2023-08-06T14:41:14;3.23;;;3.20;;
2313;SDS011;42279;51.388;7.000;2023-08-06T14:43:40;2.63;;;2.63;;
2313;SDS011;42279;51.388;7.000;2023-08-06T14:46:06;3.00;;;2.90;;
2313;SDS011;42279;51.388;7.000;2023-08-06T14:48:32;2.77;;;2.77;;
2313;SDS011;42279;51.388;7.000;2023-08-06T14:50:58;2.60;;;2.60;;
2313;SDS011;42279;51.388;7.000;2023-08-06T14:53:24;3.03;;;3.03;;
2313;SDS011;42279;51.388;7.000;2023-08-06T14:55:50;2.20;;;2.10;;
2313;SDS011;42279;51.388;7.000;2023-08-06T14:58:16;2.17;;;2.17;;
2313;SDS011;42279;51.388;7.000;2023-08-06T15:00:42;1.93;;;1.93;;
2313;SDS011;42279;51.388;7.000;2023-08-06T15:03:08;2.40;;;2.40;;
2313;SDS011;42279;51.388;7.000;2023-08-06T15:05:34;2.00;;;2.00;;
2313;SDS011;42279;51.388;7.000;2023-08-06T15:08:00;1.83;;;1.83;;
2313;SDS011;42279;51.388;7.000;2023-08-06T15:10:26;2.57;;;2.10;;
2313;SDS011;42279;51.388;7.000;2023-08-06T15:12:52;2.00;;;2.00;;
2313;SDS011;42279;51.388;7.000;2023-08-06T15:15:18;1.83;;;1.83;;
2313;SDS011;42279;51.388;7.000;2023-08-06T15:17:44;2.97;;;2.87;;
2313;SDS011;42279;51.388;7.000;2023-08-06T15:20:10;1.73;;;1.73;;
2313;SDS011;42279;51.388;7.000;2023-08-06T15:22:36;2.10;;;2.10;;
2313;SDS011;42279;51.388;7.000;2023-08-06T15:25:02;1.80;;;1.80;;
2313;SDS011;42279;51.388;7.000;2023-08-06T15:27:29;2.47;;;2.47;;
2313;SDS011;42279;51.388;7.000;2023-08-06T15:29:55;20.50;;;19.43;;
2313;SDS011;42279;51.388;7.000;2023-08-06T15:32:21;2.13;;;2.13;;
2313;SDS011;42279;51.388;7.000;2023-08-06T15:34:48;1.80;;;1.80;;
2313;SDS011;42279;51.388;7.000;2023-08-06T15:37:14;2.73;;;2.63;;
2313;SDS011;42279;51.388;7.000;2023-08-06T15:39:41;1.90;;;1.80;;
2313;SDS011;42279;51.388;7.000;2023-08-06T15:42:07;2.23;;;2.03;;
2313;SDS011;42279;51.388;7.000;2023-08-06T15:44:33;1.83;;;1.83;;
2313;SDS011;42279;51.388;7.000;2023-08-06T15:46:59;2.83;;;2.73;;
2313;SDS011;42279;51.388;7.000;2023-08-06T15:49:25;2.33;;;2.23;;
2313;SDS011;42279;51.388;7.000;2023-08-06T15:51:51;1.90;;;1.90;;
2313;SDS011;42279;51.388;7.000;2023-08-06T15:54:18;1.80;;;1.80;;